Time;durP1;ratioP1;P1;durP2;ratioP2;P2;SDS_P1;SDS_P2;PMS_P1;PMS_P2;Temp;Humidity;BMP_temperature;BMP_pressure;BME280_temperature;BME280_humidity;BME280_pressure;Samples;Min_cycle;Max_cycle;Signal;HPM_P1;HPM_P2
2023/08/18 00:00:30;;;;;;;13.40;12.10;;;;;;;-128.00;-1.00;-1.00;105797;1251;1004720;-75
2023/08/18 00:03:17;;;;;;;12.50;11.50;;;;;;;-128.00;-1.00;-1.00;105813;1251;1046786;-74
2023/08/18 00:05:43;;;;;;;12.40;11.30;;;;;;;-128.00;-1.00;-1.00;105817;1251;1004292;-75
2023/08/18 00:08:10;;;;;;;12.90;11.30;;;;;;;-128.00;-1.00;-1.00;105804;1251;1004518;-75
2023/08/18 00:10:36;;;;;;;12.70;11.30;;;;;;;-128.00;-1.00;-1.00;105814;1251;1004889;-75
2023/08/18 00:13:03;;;;;;;11.10;10.10;;;;;;;-128.00;-1.00;-1.00;105869;1251;1004196;-75
2023/08/18 00:15:30;;;;;;;11.70;10.60;;;;;;;-128.00;-1.00;-1.00;105829;1251;1004635;-75
2023/08/18 00:17:56;;;;;;;10.80;9.90;;;;;;;-128.00;-1.00;-1.00;105818;1251;1003500;-75
2023/08/18 00:20:23;;;;;;;14.20;12.80;;;;;;;-128.00;-1.00;-1.00;105821;1251;1003647;-75
2023/08/18 00:22:49;;;;;;;14.50;13.30;;;;;;;-128.00;-1.00;-1.00;105829;1255;1004951;-75
2023/08/18 00:25:16;;;;;;;13.70;12.50;;;;;;;-128.00;-1.00;-1.00;105791;1251;1005067;-75
2023/08/18 00:27:42;;;;;;;13.60;12.30;;;;;;;-128.00;-1.00;-1.00;105819;1251;1004376;-75
2023/08/18 00:30:10;;;;;;;12.70;11.60;;;;;;;-128.00;-1.00;-1.00;105810;1251;1004261;-75
2023/08/18 00:32:37;;;;;;;14.10;12.90;;;;;;;-128.00;-1.00;-1.00;105596;1251;1003635;-75
2023/08/18 00:35:03;;;;;;;13.70;12.60;;;;;;;-128.00;-1.00;-1.00;105816;1255;1004584;-75
2023/08/18 00:37:30;;;;;;;13.80;12.30;;;;;;;-128.00;-1.00;-1.00;105799;1251;1004217;-75
2023/08/18 00:39:56;;;;;;;14.40;13.00;;;;;;;-128.00;-1.00;-1.00;105825;1251;1004999;-75
2023/08/18 00:42:23;;;;;;;17.20;15.70;;;;;;;-128.00;-1.00;-1.00;105817;1251;1004021;-74
2023/08/18 00:44:50;;;;;;;16.00;14.40;;;;;;;-128.00;-1.00;-1.00;100016;1256;7578463;-75
2023/08/18 00:47:17;;;;;;;15.20;13.80;;;;;;;-128.00;-1.00;-1.00;105826;1251;1059104;-75
2023/08/18 00:49:44;;;;;;;14.80;13.40;;;;;;;-128.00;-1.00;-1.00;105823;1251;1004885;-74
2023/08/18 00:52:10;;;;;;;17.00;15.40;;;;;;;-128.00;-1.00;-1.00;105852;1251;1004292;-75
2023/08/18 00:54:37;;;;;;;14.80;13.40;;;;;;;-128.00;-1.00;-1.00;105808;1251;1004814;-75
2023/08/18 00:57:03;;;;;;;13.80;12.50;;;;;;;-128.00;-1.00;-1.00;105838;1251;1004712;-75
2023/08/18 00:59:30;;;;;;;13.30;12.10;;;;;;;-128.00;-1.00;-1.00;105760;1251;1004990;-75
2023/08/18 01:02:02;;;;;;;13.50;12.30;;;;;;;-128.00;-1.00;-1.00;105802;1251;1004866;-75
2023/08/18 01:04:32;;;;;;;13.70;12.40;;;;;;;-128.00;-1.00;-1.00;105830;1251;1046899;-75
2023/08/18 01:06:59;;;;;;;13.70;12.50;;;;;;;-128.00;-1.00;-1.00;105797;1251;1060925;-75
2023/08/18 01:09:27;;;;;;;14.20;12.80;;;;;;;-128.00;-1.00;-1.00;105832;1251;1004520;-75
2023/08/18 01:12:18;;;;;;;17.70;16.10;;;;;;;-128.00;-1.00;-1.00;105794;1251;1004597;-75
2023/08/18 01:15:18;;;;;;;17.00;15.40;;;;;;;-128.00;-1.00;-1.00;105824;1251;1045962;-74
2023/08/18 01:17:57;;;;;;;21.90;19.80;;;;;;;-128.00;-1.00;-1.00;105748;1251;1047104;-75
2023/08/18 01:20:26;;;;;;;18.40;16.80;;;;;;;-128.00;-1.00;-1.00;105840;1251;1062514;-75
2023/08/18 01:22:55;;;;;;;21.90;19.70;;;;;;;-128.00;-1.00;-1.00;105874;1251;1057334;-74
2023/08/18 01:25:22;;;;;;;20.00;18.50;;;;;;;-128.00;-1.00;-1.00;105680;1254;1058946;-75
2023/08/18 01:27:50;;;;;;;22.50;20.30;;;;;;;-128.00;-1.00;-1.00;105397;1253;1003874;-75
2023/08/18 01:30:17;;;;;;;20.90;18.80;;;;;;;-128.00;-1.00;-1.00;105341;1260;1004147;-75
2023/08/18 01:32:52;;;;;;;20.10;18.20;;;;;;;-128.00;-1.00;-1.00;105373;1260;1006383;-75
2023/08/18 01:35:24;;;;;;;19.30;17.60;;;;;;;-128.00;-1.00;-1.00;105344;1257;1055614;-75
2023/08/18 01:37:54;;;;;;;17.90;16.40;;;;;;;-128.00;-1.00;-1.00;105381;1257;1059505;-74
2023/08/18 01:40:25;;;;;;;13.70;12.60;;;;;;;-128.00;-1.00;-1.00;105354;1257;1046360;-74
2023/08/18 01:42:52;;;;;;;12.40;11.20;;;;;;;-128.00;-1.00;-1.00;105342;1256;1047124;-74
2023/08/18 01:45:19;;;;;;;15.00;13.70;;;;;;;-128.00;-1.00;-1.00;105364;1257;1004361;-76
2023/08/18 01:47:45;;;;;;;14.50;13.10;;;;;;;-128.00;-1.00;-1.00;105265;1261;1004012;-75
2023/08/18 01:50:12;;;;;;;14.10;12.90;;;;;;;-128.00;-1.00;-1.00;105325;1257;1004715;-75
2023/08/18 01:52:38;;;;;;;15.70;14.00;;;;;;;-128.00;-1.00;-1.00;105315;1256;1004143;-75
2023/08/18 01:55:05;;;;;;;16.40;14.60;;;;;;;-128.00;-1.00;-1.00;105354;1257;1003985;-75
2023/08/18 01:57:32;;;;;;;15.50;14.00;;;;;;;-128.00;-1.00;-1.00;105489;1257;1004140;-75
2023/08/18 01:59:58;;;;;;;13.50;12.20;;;;;;;-128.00;-1.00;-1.00;105498;1257;1005180;-75
2023/08/18 02:02:25;;;;;;;15.70;14.00;;;;;;;-128.00;-1.00;-1.00;105785;1251;1003591;-75
2023/08/18 02:04:54;;;;;;;12.40;11.30;;;;;;;-128.00;-1.00;-1.00;105777;1251;1003993;-75
2023/08/18 02:07:21;;;;;;;18.10;16.40;;;;;;;-128.00;-1.00;-1.00;105676;1251;1047883;-75
2023/08/18 02:09:48;;;;;;;17.90;16.20;;;;;;;-128.00;-1.00;-1.00;105802;1251;1004826;-75
2023/08/18 02:12:14;;;;;;;18.50;16.80;;;;;;;-128.00;-1.00;-1.00;105789;1251;1003582;-75
2023/08/18 02:14:41;;;;;;;18.20;16.60;;;;;;;-128.00;-1.00;-1.00;105756;1251;1004903;-74
2023/08/18 02:17:07;;;;;;;18.00;15.90;;;;;;;-128.00;-1.00;-1.00;105787;1251;1003655;-75
2023/08/18 02:19:34;;;;;;;18.60;17.00;;;;;;;-128.00;-1.00;-1.00;105791;1251;1004400;-76
2023/08/18 02:22:00;;;;;;;21.50;19.30;;;;;;;-128.00;-1.00;-1.00;105790;1251;1004201;-75
2023/08/18 02:24:28;;;;;;;28.30;25.50;;;;;;;-128.00;-1.00;-1.00;105867;1251;1003344;-75
2023/08/18 02:26:55;;;;;;;31.10;28.10;;;;;;;-128.00;-1.00;-1.00;105793;1251;1004024;-74
2023/08/18 02:29:22;;;;;;;28.70;26.00;;;;;;;-128.00;-1.00;-1.00;105774;1251;1005295;-74
2023/08/18 02:31:49;;;;;;;23.40;20.90;;;;;;;-128.00;-1.00;-1.00;105822;1251;1005341;-74
2023/08/18 02:34:16;;;;;;;20.90;18.90;;;;;;;-128.00;-1.00;-1.00;105782;1251;1003744;-74
2023/08/18 02:36:42;;;;;;;19.60;17.80;;;;;;;-128.00;-1.00;-1.00;105868;1251;1004344;-75
2023/08/18 02:39:09;;;;;;;18.30;16.50;;;;;;;-128.00;-1.00;-1.00;105775;1251;1004842;-75
2023/08/18 02:41:35;;;;;;;17.40;15.70;;;;;;;-128.00;-1.00;-1.00;105753;1251;1004667;-74
2023/08/18 02:44:03;;;;;;;16.70;15.30;;;;;;;-128.00;-1.00;-1.00;105814;1251;1005593;-75
2023/08/18 02:46:29;;;;;;;19.50;17.50;;;;;;;-128.00;-1.00;-1.00;105803;1251;1005196;-74
2023/08/18 02:48:56;;;;;;;24.50;20.20;;;;;;;-128.00;-1.00;-1.00;105781;1251;1005495;-74
2023/08/18 02:51:22;;;;;;;23.10;20.50;;;;;;;-128.00;-1.00;-1.00;105836;1251;1004376;-75
2023/08/18 02:53:50;;;;;;;22.50;20.10;;;;;;;-128.00;-1.00;-1.00;105826;1251;1004996;-74
2023/08/18 02:56:16;;;;;;;22.50;20.10;;;;;;;-128.00;-1.00;-1.00;105662;1251;1003595;-75
2023/08/18 02:58:43;;;;;;;23.00;20.70;;;;;;;-128.00;-1.00;-1.00;105839;1251;1003649;-75
2023/08/18 03:01:09;;;;;;;24.10;19.20;;;;;;;-128.00;-1.00;-1.00;105872;1251;1004734;-74
2023/08/18 03:03:36;;;;;;;22.40;20.10;;;;;;;-128.00;-1.00;-1.00;105826;1251;1004453;-75
2023/08/18 03:06:05;;;;;;;20.80;18.80;;;;;;;-128.00;-1.00;-1.00;105789;1251;1004289;-74
2023/08/18 03:08:32;;;;;;;20.20;18.30;;;;;;;-128.00;-1.00;-1.00;105813;1251;1046303;-75
2023/08/18 03:11:00;;;;;;;20.00;18.00;;;;;;;-128.00;-1.00;-1.00;105869;1251;1004318;-75
2023/08/18 03:13:28;;;;;;;20.50;18.50;;;;;;;-128.00;-1.00;-1.00;105818;1251;1004492;-75
2023/08/18 03:15:54;;;;;;;19.20;17.50;;;;;;;-128.00;-1.00;-1.00;105787;1251;1003807;-74
2023/08/18 03:18:21;;;;;;;20.20;18.20;;;;;;;-128.00;-1.00;-1.00;105796;1251;1004208;-74
2023/08/18 03:20:48;;;;;;;22.00;19.90;;;;;;;-128.00;-1.00;-1.00;105775;1251;1003192;-74
2023/08/18 03:23:18;;;;;;;18.60;16.70;;;;;;;-128.00;-1.00;-1.00;105755;1252;1005510;-75
2023/08/18 03:25:44;;;;;;;20.60;17.90;;;;;;;-128.00;-1.00;-1.00;105761;1254;1057480;-74
2023/08/18 03:28:11;;;;;;;18.00;16.20;;;;;;;-128.00;-1.00;-1.00;105725;1253;1004522;-75
2023/08/18 03:30:39;;;;;;;21.10;17.80;;;;;;;-128.00;-1.00;-1.00;105726;1253;1003611;-74
2023/08/18 03:33:08;;;;;;;36.00;21.60;;;;;;;-128.00;-1.00;-1.00;105771;1251;1004697;-74
2023/08/18 03:35:35;;;;;;;30.90;25.10;;;;;;;-128.00;-1.00;-1.00;105716;1251;1061962;-75
2023/08/18 03:38:03;;;;;;;20.70;18.50;;;;;;;-128.00;-1.00;-1.00;105768;1252;1004007;-74
2023/08/18 03:40:30;;;;;;;20.40;17.90;;;;;;;-128.00;-1.00;-1.00;105603;1253;1005367;-74
2023/08/18 03:42:56;;;;;;;21.30;15.80;;;;;;;-128.00;-1.00;-1.00;105742;1253;1004206;-74
2023/08/18 03:45:23;;;;;;;42.50;16.70;;;;;;;-128.00;-1.00;-1.00;105741;1252;1005025;-74
2023/08/18 03:47:52;;;;;;;57.70;17.30;;;;;;;-128.00;-1.00;-1.00;105689;1252;1004908;-74
2023/08/18 03:50:21;;;;;;;79.90;18.50;;;;;;;-128.00;-1.00;-1.00;105729;1253;1055295;-75
2023/08/18 03:52:48;;;;;;;67.40;17.50;;;;;;;-128.00;-1.00;-1.00;105751;1253;1058733;-75
2023/08/18 03:55:14;;;;;;;73.60;17.40;;;;;;;-128.00;-1.00;-1.00;105587;1252;1004138;-76
2023/08/18 03:57:41;;;;;;;76.00;17.50;;;;;;;-128.00;-1.00;-1.00;105733;1253;1003977;-75
2023/08/18 04:00:09;;;;;;;50.00;17.40;;;;;;;-128.00;-1.00;-1.00;105441;1254;1003865;-75
2023/08/18 04:02:36;;;;;;;52.30;18.60;;;;;;;-128.00;-1.00;-1.00;105701;1254;1004517;-75
2023/08/18 04:05:02;;;;;;;52.00;17.90;;;;;;;-128.00;-1.00;-1.00;105787;1252;1004797;-75
2023/08/18 04:07:32;;;;;;;57.50;17.70;;;;;;;-128.00;-1.00;-1.00;105704;1253;1004436;-75
2023/08/18 04:09:59;;;;;;;45.50;16.30;;;;;;;-128.00;-1.00;-1.00;105788;1255;1047831;-75
2023/08/18 04:12:25;;;;;;;41.30;15.30;;;;;;;-128.00;-1.00;-1.00;105731;1253;1005116;-75
2023/08/18 04:14:52;;;;;;;47.20;16.30;;;;;;;-128.00;-1.00;-1.00;105773;1253;1004312;-75
2023/08/18 04:17:18;;;;;;;48.20;16.60;;;;;;;-128.00;-1.00;-1.00;105786;1253;1004362;-75
2023/08/18 04:19:45;;;;;;;29.60;16.50;;;;;;;-128.00;-1.00;-1.00;105674;1252;1004006;-75
2023/08/18 04:22:12;;;;;;;79.00;19.50;;;;;;;-128.00;-1.00;-1.00;105499;1254;1004855;-75
2023/08/18 04:24:38;;;;;;;54.70;15.80;;;;;;;-128.00;-1.00;-1.00;105602;1253;1004661;-75
2023/08/18 04:27:05;;;;;;;42.90;16.20;;;;;;;-128.00;-1.00;-1.00;105735;1252;1003709;-75
2023/08/18 04:29:32;;;;;;;58.20;15.60;;;;;;;-128.00;-1.00;-1.00;105688;1252;1004742;-75
2023/08/18 04:31:58;;;;;;;69.10;15.40;;;;;;;-128.00;-1.00;-1.00;105724;1253;1004204;-74
2023/08/18 04:34:25;;;;;;;17.20;15.50;;;;;;;-128.00;-1.00;-1.00;105765;1252;1005475;-74
2023/08/18 04:36:52;;;;;;;16.90;15.30;;;;;;;-128.00;-1.00;-1.00;105702;1253;1003592;-75
2023/08/18 04:39:18;;;;;;;15.30;13.70;;;;;;;-128.00;-1.00;-1.00;105731;1253;1004477;-75
2023/08/18 04:41:45;;;;;;;13.60;12.50;;;;;;;-128.00;-1.00;-1.00;105710;1252;1005305;-75
2023/08/18 04:44:11;;;;;;;13.40;12.30;;;;;;;-128.00;-1.00;-1.00;105748;1253;1005697;-75
2023/08/18 04:46:38;;;;;;;11.30;10.50;;;;;;;-128.00;-1.00;-1.00;105749;1253;1004382;-75
2023/08/18 04:49:04;;;;;;;11.80;10.90;;;;;;;-128.00;-1.00;-1.00;105774;1252;1004587;-75
2023/08/18 04:51:31;;;;;;;11.60;10.60;;;;;;;-128.00;-1.00;-1.00;105765;1252;1005043;-77
2023/08/18 04:53:58;;;;;;;11.50;10.40;;;;;;;-128.00;-1.00;-1.00;105682;1253;1003574;-77
2023/08/18 04:56:24;;;;;;;12.30;11.30;;;;;;;-128.00;-1.00;-1.00;105712;1253;1004654;-77
2023/08/18 04:58:51;;;;;;;12.30;11.00;;;;;;;-128.00;-1.00;-1.00;105748;1253;1004045;-76
2023/08/18 05:01:17;;;;;;;12.60;11.50;;;;;;;-128.00;-1.00;-1.00;105764;1252;1005076;-77
2023/08/18 05:03:44;;;;;;;11.00;10.10;;;;;;;-128.00;-1.00;-1.00;105728;1253;1003544;-76
2023/08/18 05:06:12;;;;;;;10.20;9.20;;;;;;;-128.00;-1.00;-1.00;105539;1252;1003876;-76
2023/08/18 05:08:43;;;;;;;9.50;8.70;;;;;;;-128.00;-1.00;-1.00;105723;1253;1046564;-77
2023/08/18 05:11:11;;;;;;;10.20;9.30;;;;;;;-128.00;-1.00;-1.00;105733;1252;1048148;-77
2023/08/18 05:13:40;;;;;;;9.00;8.30;;;;;;;-128.00;-1.00;-1.00;105711;1253;1004100;-77
2023/08/18 05:16:06;;;;;;;7.30;6.80;;;;;;;-128.00;-1.00;-1.00;105741;1253;1055180;-77
2023/08/18 05:18:33;;;;;;;8.50;7.80;;;;;;;-128.00;-1.00;-1.00;105743;1252;1003707;-77
2023/08/18 05:21:01;;;;;;;9.30;8.60;;;;;;;-128.00;-1.00;-1.00;105547;1254;1004378;-77
2023/08/18 05:23:30;;;;;;;9.10;8.30;;;;;;;-128.00;-1.00;-1.00;105733;1252;1004788;-77
2023/08/18 05:25:56;;;;;;;9.90;8.90;;;;;;;-128.00;-1.00;-1.00;105588;1253;1062140;-76
2023/08/18 05:28:25;;;;;;;9.80;9.00;;;;;;;-128.00;-1.00;-1.00;105724;1252;1004665;-76
2023/08/18 05:30:52;;;;;;;11.30;10.30;;;;;;;-128.00;-1.00;-1.00;105759;1252;1004002;-77
2023/08/18 05:33:19;;;;;;;12.40;11.50;;;;;;;-128.00;-1.00;-1.00;105726;1252;1003998;-78
2023/08/18 05:35:47;;;;;;;12.60;11.40;;;;;;;-128.00;-1.00;-1.00;105774;1251;1005537;-77
2023/08/18 05:38:14;;;;;;;13.20;12.20;;;;;;;-128.00;-1.00;-1.00;105695;1252;1004095;-78
2023/08/18 05:40:42;;;;;;;13.40;12.40;;;;;;;-128.00;-1.00;-1.00;105760;1252;1004390;-78
2023/08/18 05:43:10;;;;;;;13.30;12.00;;;;;;;-128.00;-1.00;-1.00;105726;1252;1058562;-77
2023/08/18 05:45:36;;;;;;;12.60;11.50;;;;;;;-128.00;-1.00;-1.00;105760;1252;1004642;-77
2023/08/18 05:48:04;;;;;;;12.80;11.80;;;;;;;-128.00;-1.00;-1.00;105691;1251;1003539;-77
2023/08/18 05:50:31;;;;;;;13.00;12.00;;;;;;;-128.00;-1.00;-1.00;105798;1252;1003520;-76
2023/08/18 05:53:00;;;;;;;12.80;11.70;;;;;;;-128.00;-1.00;-1.00;105794;1252;1004468;-76
2023/08/18 05:55:27;;;;;;;12.60;11.60;;;;;;;-128.00;-1.00;-1.00;105759;1253;1059255;-77
2023/08/18 05:57:57;;;;;;;13.30;12.30;;;;;;;-128.00;-1.00;-1.00;105730;1252;1003884;-76
2023/08/18 06:00:24;;;;;;;12.40;11.50;;;;;;;-128.00;-1.00;-1.00;105740;1251;1048179;-75
2023/08/18 06:02:50;;;;;;;13.40;12.40;;;;;;;-128.00;-1.00;-1.00;105721;1251;1003555;-76
2023/08/18 06:05:17;;;;;;;13.10;11.90;;;;;;;-128.00;-1.00;-1.00;105758;1251;1003750;-77
2023/08/18 06:07:44;;;;;;;13.10;11.90;;;;;;;-128.00;-1.00;-1.00;105728;1253;1004858;-76
2023/08/18 06:10:11;;;;;;;13.30;12.10;;;;;;;-128.00;-1.00;-1.00;105733;1253;1004522;-76
2023/08/18 06:12:38;;;;;;;12.60;11.50;;;;;;;-128.00;-1.00;-1.00;105738;1252;1003793;-77
2023/08/18 06:15:06;;;;;;;11.60;10.70;;;;;;;-128.00;-1.00;-1.00;105550;1251;1004562;-76
2023/08/18 06:17:33;;;;;;;12.80;11.60;;;;;;;-128.00;-1.00;-1.00;105761;1254;1004799;-76
2023/08/18 06:20:00;;;;;;;12.40;11.30;;;;;;;-128.00;-1.00;-1.00;105731;1252;1004421;-76
2023/08/18 06:22:27;;;;;;;12.20;11.20;;;;;;;-128.00;-1.00;-1.00;105763;1251;1004206;-76
2023/08/18 06:24:53;;;;;;;12.60;11.50;;;;;;;-128.00;-1.00;-1.00;105769;1252;1003506;-77
2023/08/18 06:27:20;;;;;;;11.60;10.70;;;;;;;-128.00;-1.00;-1.00;105745;1253;1003744;-77
2023/08/18 06:29:46;;;;;;;13.50;12.30;;;;;;;-128.00;-1.00;-1.00;105738;1253;1003459;-76
2023/08/18 06:32:13;;;;;;;11.90;11.00;;;;;;;-128.00;-1.00;-1.00;105753;1252;1004476;-77
2023/08/18 06:34:41;;;;;;;10.70;9.70;;;;;;;-128.00;-1.00;-1.00;105782;1251;1003980;-77
2023/08/18 06:37:07;;;;;;;11.00;10.10;;;;;;;-128.00;-1.00;-1.00;105712;1251;1004073;-77
2023/08/18 06:39:34;;;;;;;11.60;10.50;;;;;;;-128.00;-1.00;-1.00;105776;1253;1004138;-76
2023/08/18 06:42:00;;;;;;;11.40;10.40;;;;;;;-128.00;-1.00;-1.00;105745;1251;1004399;-76
2023/08/18 06:44:27;;;;;;;11.90;10.70;;;;;;;-128.00;-1.00;-1.00;105712;1252;1005454;-77
2023/08/18 06:46:54;;;;;;;8.70;8.00;;;;;;;-128.00;-1.00;-1.00;105721;1252;1005177;-77
2023/08/18 06:49:20;;;;;;;8.90;8.00;;;;;;;-128.00;-1.00;-1.00;105788;1252;1004201;-76
2023/08/18 06:51:48;;;;;;;8.30;7.70;;;;;;;-128.00;-1.00;-1.00;105722;1251;1004442;-78
2023/08/18 06:54:14;;;;;;;8.70;8.00;;;;;;;-128.00;-1.00;-1.00;105786;1251;1004270;-76
2023/08/18 06:56:41;;;;;;;8.50;7.80;;;;;;;-128.00;-1.00;-1.00;105739;1253;1003646;-77
2023/08/18 06:59:07;;;;;;;9.70;8.90;;;;;;;-128.00;-1.00;-1.00;105593;1253;1004464;-76
2023/08/18 07:01:34;;;;;;;9.60;8.90;;;;;;;-128.00;-1.00;-1.00;105707;1253;1004514;-76
2023/08/18 07:04:01;;;;;;;10.20;9.50;;;;;;;-128.00;-1.00;-1.00;105707;1252;1004502;-76
2023/08/18 07:06:29;;;;;;;10.70;9.80;;;;;;;-128.00;-1.00;-1.00;105663;1253;1007207;-77
2023/08/18 07:08:55;;;;;;;10.20;9.30;;;;;;;-128.00;-1.00;-1.00;105703;1252;1003921;-76
2023/08/18 07:11:22;;;;;;;10.50;9.70;;;;;;;-128.00;-1.00;-1.00;105695;1252;1004815;-77
2023/08/18 07:13:48;;;;;;;10.40;9.30;;;;;;;-128.00;-1.00;-1.00;105727;1252;1004500;-76
2023/08/18 07:16:15;;;;;;;10.80;9.80;;;;;;;-128.00;-1.00;-1.00;105733;1252;1003856;-75
2023/08/18 07:18:41;;;;;;;10.50;9.70;;;;;;;-128.00;-1.00;-1.00;105821;1251;1004304;-76
2023/08/18 07:21:08;;;;;;;11.30;10.30;;;;;;;-128.00;-1.00;-1.00;105727;1253;1004977;-75
2023/08/18 07:23:34;;;;;;;11.50;10.40;;;;;;;-128.00;-1.00;-1.00;105498;1252;1005251;-76
2023/08/18 07:26:02;;;;;;;10.50;9.70;;;;;;;-128.00;-1.00;-1.00;105788;1252;1004463;-76
2023/08/18 07:28:29;;;;;;;10.80;9.80;;;;;;;-128.00;-1.00;-1.00;105719;1252;1006314;-75
2023/08/18 07:31:03;;;;;;;12.20;10.80;;;;;;;-128.00;-1.00;-1.00;105810;1252;1004242;-76
2023/08/18 07:33:30;;;;;;;12.20;11.00;;;;;;;-128.00;-1.00;-1.00;105579;1252;1059931;-76
2023/08/18 07:35:58;;;;;;;11.90;10.70;;;;;;;-128.00;-1.00;-1.00;105729;1253;1004330;-76
2023/08/18 07:38:24;;;;;;;15.20;13.80;;;;;;;-128.00;-1.00;-1.00;105808;1253;1003493;-76
2023/08/18 07:40:52;;;;;;;12.60;11.60;;;;;;;-128.00;-1.00;-1.00;105775;1253;1003720;-76
2023/08/18 07:43:19;;;;;;;15.20;13.90;;;;;;;-128.00;-1.00;-1.00;105808;1253;1004923;-76
2023/08/18 07:45:45;;;;;;;13.60;12.30;;;;;;;-128.00;-1.00;-1.00;105728;1252;1004155;-76
2023/08/18 07:48:12;;;;;;;13.30;12.10;;;;;;;-128.00;-1.00;-1.00;105756;1253;1005116;-77
2023/08/18 07:50:42;;;;;;;13.60;12.30;;;;;;;-128.00;-1.00;-1.00;105727;1252;1004492;-76
2023/08/18 07:53:09;;;;;;;12.70;11.50;;;;;;;-128.00;-1.00;-1.00;105723;1252;1062106;-76
2023/08/18 07:55:36;;;;;;;12.40;11.20;;;;;;;-128.00;-1.00;-1.00;105744;1252;1003888;-76
2023/08/18 07:58:04;;;;;;;11.20;10.10;;;;;;;-128.00;-1.00;-1.00;105739;1253;1005682;-76
2023/08/18 08:00:32;;;;;;;12.00;10.60;;;;;;;-128.00;-1.00;-1.00;105740;1252;1004419;-77
2023/08/18 08:02:59;;;;;;;10.70;9.70;;;;;;;-128.00;-1.00;-1.00;105762;1252;1048915;-75
2023/08/18 08:05:26;;;;;;;10.40;9.50;;;;;;;-128.00;-1.00;-1.00;105632;1252;1005308;-76
2023/08/18 08:07:53;;;;;;;11.30;10.30;;;;;;;-128.00;-1.00;-1.00;105765;1251;1003507;-76
2023/08/18 08:10:19;;;;;;;12.50;11.30;;;;;;;-128.00;-1.00;-1.00;105751;1253;1004302;-77
2023/08/18 08:12:47;;;;;;;12.70;11.50;;;;;;;-128.00;-1.00;-1.00;105756;1251;1003782;-77
2023/08/18 08:15:14;;;;;;;11.30;10.20;;;;;;;-128.00;-1.00;-1.00;105799;1253;1047101;-77
2023/08/18 08:17:41;;;;;;;11.80;10.40;;;;;;;-128.00;-1.00;-1.00;105743;1252;1004240;-76
2023/08/18 08:20:18;;;;;;;10.90;9.90;;;;;;;-128.00;-1.00;-1.00;105793;1252;1005324;-77
2023/08/18 08:22:48;;;;;;;11.40;10.10;;;;;;;-128.00;-1.00;-1.00;105438;1252;1061309;-75
2023/08/18 08:25:16;;;;;;;11.10;10.00;;;;;;;-128.00;-1.00;-1.00;105754;1251;1046782;-76
2023/08/18 08:27:43;;;;;;;11.10;10.20;;;;;;;-128.00;-1.00;-1.00;105769;1251;1003931;-77
2023/08/18 08:30:12;;;;;;;9.60;8.60;;;;;;;-128.00;-1.00;-1.00;105752;1252;1004980;-76
2023/08/18 08:32:38;;;;;;;10.10;8.60;;;;;;;-128.00;-1.00;-1.00;105792;1252;1055935;-76
2023/08/18 08:35:05;;;;;;;10.60;9.50;;;;;;;-128.00;-1.00;-1.00;105730;1252;1004190;-76
2023/08/18 08:37:32;;;;;;;11.20;10.20;;;;;;;-128.00;-1.00;-1.00;105714;1253;1003658;-76
2023/08/18 08:39:58;;;;;;;12.00;10.90;;;;;;;-128.00;-1.00;-1.00;105604;1252;1004504;-76
2023/08/18 08:42:25;;;;;;;11.80;10.90;;;;;;;-128.00;-1.00;-1.00;105774;1252;1004355;-76
2023/08/18 08:44:52;;;;;;;11.70;10.70;;;;;;;-128.00;-1.00;-1.00;105736;1253;1004053;-76
2023/08/18 08:47:19;;;;;;;12.60;10.70;;;;;;;-128.00;-1.00;-1.00;105584;1252;1004538;-76
2023/08/18 08:49:48;;;;;;;11.50;10.30;;;;;;;-128.00;-1.00;-1.00;105724;1252;1003879;-76
2023/08/18 08:52:16;;;;;;;;;;;;;;;-128.00;-1.00;-1.00;105694;1252;1047325;-76
2023/08/18 08:54:52;;;;;;;13.50;12.20;;;;;;;-128.00;-1.00;-1.00;105537;1251;1004838;-76
2023/08/18 08:57:22;;;;;;;11.40;10.30;;;;;;;-128.00;-1.00;-1.00;105699;1254;1054618;-77
2023/08/18 08:59:50;;;;;;;15.50;13.60;;;;;;;-128.00;-1.00;-1.00;105621;1252;1058457;-76
2023/08/18 09:02:17;;;;;;;12.10;10.90;;;;;;;-128.00;-1.00;-1.00;105716;1252;1003597;-76
2023/08/18 09:04:43;;;;;;;12.30;11.20;;;;;;;-128.00;-1.00;-1.00;105486;1252;1004611;-77
2023/08/18 09:07:12;;;;;;;12.80;11.70;;;;;;;-128.00;-1.00;-1.00;105736;1252;1004345;-76
2023/08/18 09:09:40;;;;;;;12.20;11.10;;;;;;;-128.00;-1.00;-1.00;105723;1252;1056044;-76
2023/08/18 09:12:07;;;;;;;13.00;11.80;;;;;;;-128.00;-1.00;-1.00;105556;1252;1004666;-77
2023/08/18 09:14:35;;;;;;;12.20;11.10;;;;;;;-128.00;-1.00;-1.00;105706;1253;1004135;-76
2023/08/18 09:17:02;;;;;;;14.00;12.70;;;;;;;-128.00;-1.00;-1.00;105654;1252;1003653;-78
2023/08/18 09:19:29;;;;;;;14.40;12.90;;;;;;;-128.00;-1.00;-1.00;105724;1253;1003236;-77
2023/08/18 09:22:00;;;;;;;14.20;12.80;;;;;;;-128.00;-1.00;-1.00;105737;1253;1004689;-76
2023/08/18 09:24:29;;;;;;;12.00;10.80;;;;;;;-128.00;-1.00;-1.00;105710;1251;1059220;-76
2023/08/18 09:27:09;;;;;;;10.60;9.70;;;;;;;-128.00;-1.00;-1.00;105692;1252;1047482;-76
2023/08/18 09:29:36;;;;;;;12.30;11.00;;;;;;;-128.00;-1.00;-1.00;105744;1252;1047732;-76
2023/08/18 09:32:03;;;;;;;10.50;9.60;;;;;;;-128.00;-1.00;-1.00;105600;1253;1003694;-76
2023/08/18 09:34:33;;;;;;;11.20;10.10;;;;;;;-128.00;-1.00;-1.00;105777;1253;1004504;-76
2023/08/18 09:36:59;;;;;;;10.30;9.40;;;;;;;-128.00;-1.00;-1.00;105736;1252;1058564;-76
2023/08/18 09:39:27;;;;;;;10.30;9.40;;;;;;;-128.00;-1.00;-1.00;105767;1252;1004553;-76
2023/08/18 09:41:54;;;;;;;9.00;8.10;;;;;;;-128.00;-1.00;-1.00;105750;1252;1004624;-76
2023/08/18 09:44:22;;;;;;;9.00;8.30;;;;;;;-128.00;-1.00;-1.00;105767;1251;1004860;-76
2023/08/18 09:46:56;;;;;;;11.00;10.00;;;;;;;-128.00;-1.00;-1.00;105796;1252;1005347;-78
2023/08/18 09:49:24;;;;;;;11.00;10.00;;;;;;;-128.00;-1.00;-1.00;105740;1252;1058750;-76
2023/08/18 09:52:07;;;;;;;9.80;8.90;;;;;;;-128.00;-1.00;-1.00;105773;1253;1004068;-74
2023/08/18 09:55:03;;;;;;;10.40;9.50;;;;;;;-128.00;-1.00;-1.00;105829;1252;1047401;-73
2023/08/18 09:57:37;;;;;;;9.40;8.60;;;;;;;-128.00;-1.00;-1.00;105783;1251;1062537;-73
2023/08/18 10:00:08;;;;;;;10.20;9.30;;;;;;;-128.00;-1.00;-1.00;105753;1252;1054904;-72
2023/08/18 10:02:36;;;;;;;10.70;9.70;;;;;;;-128.00;-1.00;-1.00;105699;1252;1058486;-72
2023/08/18 10:05:03;;;;;;;9.70;8.80;;;;;;;-128.00;-1.00;-1.00;105710;1252;1047486;-73
2023/08/18 10:07:31;;;;;;;10.80;9.90;;;;;;;-128.00;-1.00;-1.00;105747;1252;1004875;-73
2023/08/18 10:09:57;;;;;;;9.50;8.50;;;;;;;-128.00;-1.00;-1.00;105756;1251;1003665;-73
2023/08/18 10:12:24;;;;;;;9.30;8.40;;;;;;;-128.00;-1.00;-1.00;105723;1252;1004456;-72
2023/08/18 10:14:52;;;;;;;10.80;8.70;;;;;;;-128.00;-1.00;-1.00;105717;1251;1004457;-71
2023/08/18 10:17:23;;;;;;;9.90;9.00;;;;;;;-128.00;-1.00;-1.00;105706;1252;1004283;-72
2023/08/18 10:19:55;;;;;;;9.60;8.50;;;;;;;-128.00;-1.00;-1.00;105785;1253;1047687;-72
2023/08/18 10:22:24;;;;;;;9.30;8.40;;;;;;;-128.00;-1.00;-1.00;105721;1252;1061246;-71
2023/08/18 10:24:52;;;;;;;10.60;9.70;;;;;;;-128.00;-1.00;-1.00;105723;1253;1056284;-72
2023/08/18 10:27:28;;;;;;;11.00;9.70;;;;;;;-128.00;-1.00;-1.00;105719;1252;1003682;-72
2023/08/18 10:30:15;;;;;;;9.50;8.60;;;;;;;-128.00;-1.00;-1.00;105693;1253;1044864;-72
2023/08/18 10:32:42;;;;;;;9.00;8.10;;;;;;;-128.00;-1.00;-1.00;105271;1257;1045851;-71
2023/08/18 10:35:18;;;;;;;10.50;9.50;;;;;;;-128.00;-1.00;-1.00;105275;1258;1004539;-72
2023/08/18 10:37:49;;;;;;;10.80;8.50;;;;;;;-128.00;-1.00;-1.00;105282;1258;1055713;-73
2023/08/18 10:40:36;;;;;;;10.90;10.00;;;;;;;-128.00;-1.00;-1.00;105242;1259;1059132;-73
2023/08/18 10:43:02;;;;;;;9.90;8.90;;;;;;;-128.00;-1.00;-1.00;105205;1258;1045014;-73
2023/08/18 10:45:30;;;;;;;10.40;9.20;;;;;;;-128.00;-1.00;-1.00;105276;1259;1003698;-73
2023/08/18 10:47:58;;;;;;;10.50;8.90;;;;;;;-128.00;-1.00;-1.00;105329;1258;1004171;-73
2023/08/18 10:50:30;;;;;;;10.00;9.10;;;;;;;-128.00;-1.00;-1.00;105267;1259;1004114;-73
2023/08/18 10:52:57;;;;;;;9.80;8.60;;;;;;;-128.00;-1.00;-1.00;105263;1258;1059110;-73
2023/08/18 10:55:28;;;;;;;8.80;8.10;;;;;;;-128.00;-1.00;-1.00;105122;1258;1004197;-73
2023/08/18 10:57:54;;;;;;;8.80;8.00;;;;;;;-128.00;-1.00;-1.00;105315;1257;1048011;-73
2023/08/18 11:00:21;;;;;;;9.30;8.10;;;;;;;-128.00;-1.00;-1.00;105243;1259;1004134;-72
2023/08/18 11:02:49;;;;;;;8.50;7.60;;;;;;;-128.00;-1.00;-1.00;105285;1260;1003664;-73
2023/08/18 11:05:22;;;;;;;9.60;8.60;;;;;;;-128.00;-1.00;-1.00;105201;1258;1003441;-72
2023/08/18 11:07:51;;;;;;;8.10;7.20;;;;;;;-128.00;-1.00;-1.00;105234;1258;1045333;-73